createdAt,value
2018-07-27T00:01:43.029Z,1014.3
2018-07-27T00:06:42.965Z,1014.2
2018-07-27T00:11:42.983Z,1014.2
2018-07-27T00:16:43.012Z,1014.2
2018-07-27T00:21:43.055Z,1014.2
2018-07-27T00:26:43.093Z,1014.2
2018-07-27T00:31:42.892Z,1014.2
2018-07-27T00:36:43.066Z,1014.1
2018-07-27T00:41:54.535Z,1014.1
2018-07-27T00:46:54.380Z,1014.1
2018-07-27T00:51:54.278Z,1014.1
2018-07-27T00:56:54.337Z,1014.1
2018-07-27T01:01:54.326Z,1014.1
2018-07-27T01:06:54.323Z,1014.2
2018-07-27T01:11:54.455Z,1014.2
2018-07-27T01:16:56.342Z,1014.1
2018-07-27T01:21:56.072Z,1014.3
2018-07-27T01:27:08.552Z,1014.3
2018-07-27T01:32:08.392Z,1014.3
2018-07-27T01:37:08.465Z,1014.1
2018-07-27T01:42:08.290Z,1014.1
2018-07-27T01:47:08.292Z,1014.1
2018-07-27T01:52:08.452Z,1014.2
2018-07-27T01:57:08.315Z,1014.3
2018-07-27T02:02:08.297Z,1014.1
2018-07-27T02:07:08.319Z,1014.2
2018-07-27T02:12:20.040Z,1014.2
2018-07-27T02:17:19.752Z,1014.2
2018-07-27T02:22:19.764Z,1014.2
2018-07-27T02:27:19.714Z,1014.2
2018-07-27T02:32:19.739Z,1014.3
2018-07-27T02:37:19.916Z,1014.2
2018-07-27T02:42:19.988Z,1014.2
2018-07-27T02:47:20.180Z,1014.3
2018-07-27T02:52:19.922Z,1014.3
2018-07-27T02:57:32.572Z,1014.3
2018-07-27T03:02:32.305Z,1014.2
2018-07-27T03:07:32.347Z,1014.2
2018-07-27T03:12:35.276Z,1014.2
2018-07-27T03:17:32.504Z,1014.3
2018-07-27T03:22:32.424Z,1014.3
2018-07-27T03:27:32.323Z,1014.2
2018-07-27T03:32:32.318Z,1014.2
2018-07-27T03:37:32.308Z,1014.3
2018-07-27T03:42:44.014Z,1014.3
2018-07-27T03:47:43.846Z,1014.3
2018-07-27T03:52:44.026Z,1014.5
2018-07-27T03:57:43.930Z,1014.4
2018-07-27T04:02:43.742Z,1014.4
2018-07-27T04:07:43.725Z,1014.4
2018-07-27T04:12:43.940Z,1014.4
2018-07-27T04:17:43.736Z,1014.5
2018-07-27T04:22:43.853Z,1014.5
2018-07-27T04:27:56.093Z,1014.4
2018-07-27T04:32:56.154Z,1014.3
2018-07-27T04:37:55.973Z,1014.4
2018-07-27T04:42:56.187Z,1014.3
2018-07-27T04:47:56.064Z,1014.2
2018-07-27T04:52:55.830Z,1014.1
2018-07-27T04:57:55.839Z,1014.1
2018-07-27T05:02:56.151Z,1014
2018-07-27T05:07:56.081Z,1014
2018-07-27T05:13:09.294Z,1014
2018-07-27T05:18:09.239Z,1013.9
2018-07-27T05:23:09.036Z,1013.9
2018-07-27T05:28:09.025Z,1013.9
2018-07-27T05:33:09.250Z,1013.9
2018-07-27T05:38:09.293Z,1013.9
2018-07-27T05:43:09.208Z,1013.7
2018-07-27T05:48:09.385Z,1013.8
2018-07-27T05:53:09.100Z,1013.8
2018-07-27T05:58:21.493Z,1013.8
2018-07-27T06:03:21.126Z,1013.8
2018-07-27T06:08:21.370Z,1013.6
2018-07-27T06:13:21.222Z,1013.7
2018-07-27T06:18:21.167Z,1013.6
2018-07-27T06:23:21.370Z,1013.5
2018-07-27T06:28:21.428Z,1013.4
2018-07-27T06:33:23.685Z,1013.3
2018-07-27T06:38:23.412Z,1013.3
2018-07-27T06:43:36.986Z,1013.3
2018-07-27T06:48:36.917Z,1013.3
2018-07-27T06:53:36.726Z,1013.3
2018-07-27T06:58:36.739Z,1013.2
2018-07-27T07:03:37.188Z,1013.2
2018-07-27T07:08:36.725Z,1013
2018-07-27T07:13:36.720Z,1013.1
2018-07-27T07:18:40.091Z,1013.2
2018-07-27T07:23:39.803Z,1013
2018-07-27T07:28:52.076Z,1013.1
2018-07-27T07:33:52.071Z,1013
2018-07-27T07:38:51.842Z,1013.1
2018-07-27T07:43:52.251Z,1013.1
2018-07-27T07:48:51.847Z,1013.1
2018-07-27T07:53:51.848Z,1012.9
2018-07-27T07:58:51.884Z,1013
2018-07-27T08:03:54.848Z,1013
2018-07-27T08:08:54.548Z,1012.9
2018-07-27T08:14:05.356Z,1012.8
2018-07-27T08:19:05.275Z,1012.9
2018-07-27T08:24:05.139Z,1012.7
2018-07-27T08:29:05.116Z,1012.8
2018-07-27T08:34:05.052Z,1012.6
2018-07-27T08:39:05.461Z,1012.6
2018-07-27T08:44:05.244Z,1012.6
2018-07-27T08:49:09.646Z,1012.6
2018-07-27T08:54:09.300Z,1012.6
2018-07-27T08:59:18.801Z,1012.6
2018-07-27T09:04:18.797Z,1012.4
2018-07-27T09:09:18.689Z,1012.2
2018-07-27T09:14:18.543Z,1012.2
2018-07-27T09:19:18.824Z,1012.3
2018-07-27T09:24:19.160Z,1012.3
2018-07-27T09:29:18.555Z,1012.4
2018-07-27T09:34:21.289Z,1012.3
2018-07-27T09:39:21.268Z,1012.3
2018-07-27T09:44:31.556Z,1012.3
2018-07-27T09:49:31.492Z,1012.2
2018-07-27T09:54:31.284Z,1012.1
2018-07-27T09:59:31.469Z,1012.1
2018-07-27T10:04:31.688Z,1012
2018-07-27T10:09:31.675Z,1011.9
2018-07-27T10:14:31.473Z,1011.9
2018-07-27T10:19:32.023Z,1011.8
2018-07-27T10:24:31.793Z,1011.7
2018-07-27T10:29:44.171Z,1011.7
2018-07-27T10:34:43.897Z,1011.7
2018-07-27T10:39:43.899Z,1011.8
2018-07-27T10:44:43.967Z,1011.6
2018-07-27T10:49:43.912Z,1011.6
2018-07-27T10:54:44.142Z,1011.5
2018-07-27T10:59:44.294Z,1011.4
2018-07-27T11:04:47.169Z,1011.3
2018-07-27T11:09:47.395Z,1011.3
2018-07-27T11:14:59.056Z,1011.3
2018-07-27T11:19:58.766Z,1011.2
2018-07-27T11:24:58.780Z,1011.1
2018-07-27T11:29:58.796Z,1011
2018-07-27T11:34:58.933Z,1011
2018-07-27T11:39:58.790Z,1010.8
2018-07-27T11:44:58.814Z,1010.8
2018-07-27T11:50:00.787Z,1010.7
2018-07-27T11:55:00.720Z,1010.8
2018-07-27T12:00:11.064Z,1010.7
2018-07-27T12:05:10.757Z,1010.6
2018-07-27T12:10:10.983Z,1010.6
2018-07-27T12:15:11.791Z,1010.4
2018-07-27T12:20:10.769Z,1010.3
2018-07-27T12:25:10.959Z,1010.3
2018-07-27T12:30:10.933Z,1010.1
2018-07-27T12:35:11.724Z,1010
2018-07-27T12:40:11.466Z,1010
2018-07-27T12:45:26.455Z,1009.9
2018-07-27T12:50:26.440Z,1009.9
2018-07-27T12:55:26.180Z,1010
2018-07-27T13:00:26.271Z,1009.8
2018-07-27T13:05:26.884Z,1009.7
2018-07-27T13:10:26.311Z,1009.7
2018-07-27T13:15:26.498Z,1009.8
2018-07-27T13:20:30.048Z,1009.7
2018-07-27T13:25:30.041Z,1009.7
2018-07-27T13:30:42.343Z,1009.6
2018-07-27T13:40:42.106Z,1009.6
2018-07-27T13:45:42.199Z,1009.5
2018-07-27T13:50:42.244Z,1009.4
2018-07-27T13:55:42.076Z,1009.3
2018-07-27T14:00:42.093Z,1009.1
2018-07-27T14:05:43.925Z,1009.1
2018-07-27T14:10:43.642Z,1009.2
2018-07-27T14:15:56.077Z,1009.2
2018-07-27T14:20:55.813Z,1009.1
2018-07-27T14:25:55.761Z,1009
2018-07-27T14:30:55.826Z,1009
2018-07-27T14:35:55.914Z,1008.9
2018-07-27T14:40:55.812Z,1009
2018-07-27T14:45:57.174Z,1009
2018-07-27T14:50:55.922Z,1009
2018-07-27T14:55:56.151Z,1009
2018-07-27T15:01:10.520Z,1009
2018-07-27T15:06:10.430Z,1009
2018-07-27T15:11:10.244Z,1008.9
2018-07-27T15:16:10.376Z,1009
2018-07-27T15:21:10.242Z,1008.9
2018-07-27T15:26:10.455Z,1009
2018-07-27T15:31:10.861Z,1008.9
2018-07-27T15:36:16.291Z,1008.9
2018-07-27T15:41:16.022Z,1008.8
2018-07-27T15:46:26.649Z,1008.9
2018-07-27T15:51:26.383Z,1008.9
2018-07-27T15:56:26.388Z,1008.8
2018-07-27T16:01:26.372Z,1008.9
2018-07-27T16:06:26.370Z,1008.8
2018-07-27T16:11:26.374Z,1008.9
2018-07-27T16:16:26.597Z,1008.8
2018-07-27T16:21:28.416Z,1008.8
2018-07-27T16:26:28.154Z,1008.8
2018-07-27T16:31:41.124Z,1008.8
2018-07-27T16:36:41.083Z,1009.1
2018-07-27T16:41:41.079Z,1009.1
2018-07-27T16:46:40.857Z,1009.1
2018-07-27T16:51:40.854Z,1009.2
2018-07-27T16:56:41.079Z,1009.2
2018-07-27T17:01:41.018Z,1009.3
2018-07-27T17:06:41.399Z,1009.3
2018-07-27T17:11:41.274Z,1009.3
2018-07-27T17:16:53.291Z,1009.2
2018-07-27T17:21:52.952Z,1009.3
2018-07-27T17:26:53.154Z,1009.2
2018-07-27T17:31:53.199Z,1009.2
2018-07-27T17:36:53.026Z,1009.3
2018-07-27T17:41:54.235Z,1009.2
2018-07-27T17:46:54.436Z,1009.3
2018-07-27T17:51:54.276Z,1009.3
2018-07-27T17:56:54.441Z,1009.3
2018-07-27T18:02:05.932Z,1009.3
2018-07-27T18:07:06.241Z,1009.3
2018-07-27T18:12:05.850Z,1009.3
2018-07-27T18:17:05.698Z,1009.4
2018-07-27T18:22:05.666Z,1009.3
2018-07-27T18:27:05.657Z,1009.5
2018-07-27T18:32:05.930Z,1009.5
2018-07-27T18:37:06.130Z,1009.6
2018-07-27T18:42:05.841Z,1009.6
2018-07-27T18:47:18.418Z,1009.7
2018-07-27T18:52:18.371Z,1009.7
2018-07-27T18:57:18.159Z,1009.9
2018-07-27T19:02:19.475Z,1009.9
2018-07-27T19:07:18.712Z,1009.9
2018-07-27T19:12:18.370Z,1010.1
2018-07-27T19:17:18.175Z,1010.1
2018-07-27T19:22:19.897Z,1010.1
2018-07-27T19:27:19.261Z,1010
2018-07-27T19:32:31.927Z,1010
2018-07-27T19:37:31.687Z,1010
2018-07-27T19:42:31.903Z,1010
2018-07-27T19:47:31.823Z,1010
2018-07-27T19:52:31.641Z,1010
2018-07-27T19:57:31.661Z,1009.9
2018-07-27T20:02:32.004Z,1009.9
2018-07-27T20:07:33.169Z,1010
2018-07-27T20:12:32.925Z,1010.1
2018-07-27T20:17:44.826Z,1010.1
2018-07-27T20:22:44.770Z,1010
2018-07-27T20:27:44.670Z,1010
2018-07-27T20:32:44.560Z,1010.1
2018-07-27T20:37:44.770Z,1010.1
2018-07-27T20:42:44.529Z,1010.1
2018-07-27T20:47:44.515Z,1010.2
2018-07-27T20:52:47.503Z,1010.3
2018-07-27T20:57:47.216Z,1010.3
2018-07-27T21:03:00.494Z,1010.3
2018-07-27T21:08:00.269Z,1010.3
2018-07-27T21:13:00.222Z,1010.3
2018-07-27T21:18:00.223Z,1010.4
2018-07-27T21:23:00.438Z,1010.4
2018-07-27T21:28:00.462Z,1010.3
2018-07-27T21:33:00.356Z,1010.2
2018-07-27T21:38:01.576Z,1010.2
2018-07-27T21:43:01.280Z,1010.2
2018-07-27T21:48:16.620Z,1010.3
2018-07-27T21:53:16.326Z,1010.3
2018-07-27T21:58:16.544Z,1010.2
2018-07-27T22:03:16.334Z,1010.2
2018-07-27T22:08:16.459Z,1010.2
2018-07-27T22:13:16.848Z,1010.1
2018-07-27T22:18:16.427Z,1010.2
2018-07-27T22:23:16.659Z,1010.2
2018-07-27T22:28:16.455Z,1010.2
2018-07-27T22:33:30.314Z,1010.3
2018-07-27T22:38:30.320Z,1010.3
2018-07-27T22:43:30.489Z,1010.3
2018-07-27T22:48:30.195Z,1010.2
2018-07-27T22:53:30.439Z,1010.2
2018-07-27T22:58:30.798Z,1010.2
2018-07-27T23:03:30.219Z,1010.3
2018-07-27T23:08:30.409Z,1010.3
2018-07-27T23:13:30.224Z,1010.3
2018-07-27T23:18:42.570Z,1010.2
2018-07-27T23:23:42.232Z,1010.2
2018-07-27T23:28:42.406Z,1010.2
2018-07-27T23:33:42.477Z,1010.2
2018-07-27T23:38:42.500Z,1010.1
2018-07-27T23:43:42.298Z,1010
2018-07-27T23:48:42.282Z,1010
2018-07-27T23:53:42.639Z,1010.1
2018-07-27T23:58:42.386Z,1010
